createdAt,value
2018-06-29T00:00:15.111Z,101865.95
2018-06-29T00:00:36.867Z,101871.34
2018-06-29T00:00:58.734Z,101865.17
2018-06-29T00:01:20.388Z,101875.52
2018-06-29T00:01:42.242Z,101871.02
2018-06-29T00:02:03.986Z,101869.34
2018-06-29T00:02:25.741Z,101869.17
2018-06-29T00:02:47.502Z,101872.72
2018-06-29T00:03:09.254Z,101868.78
2018-06-29T00:03:31.003Z,101863.59
2018-06-29T00:03:52.780Z,101865.83
2018-06-29T00:04:14.540Z,101871.26
2018-06-29T00:04:36.306Z,101866.94
2018-06-29T00:04:58.064Z,101866.41
2018-06-29T00:05:19.830Z,101870.55
2018-06-29T00:05:41.584Z,101869.41
2018-06-29T00:06:03.338Z,101864.52
2018-06-29T00:06:25.090Z,101868.55
2018-06-29T00:06:46.853Z,101868.80
2018-06-29T00:07:08.660Z,101868.95
2018-06-29T00:07:30.452Z,101866.32
2018-06-29T00:07:52.251Z,101864.47
2018-06-29T00:08:14.021Z,101870.64
2018-06-29T00:08:35.775Z,101869.87
2018-06-29T00:08:57.548Z,101868.66
2018-06-29T00:09:19.299Z,101868.12
2018-06-29T00:09:41.091Z,101862.34
2018-06-29T00:10:02.835Z,101865.89
2018-06-29T00:10:25.675Z,101858.94
2018-06-29T00:10:47.452Z,101868.66
2018-06-29T00:11:09.213Z,101866.81
2018-06-29T00:11:30.976Z,101862.00
2018-06-29T00:11:52.823Z,101860.30
2018-06-29T00:12:14.588Z,101858.05
2018-06-29T00:12:36.347Z,101864.77
2018-06-29T00:12:58.104Z,101862.14
2018-06-29T00:13:19.867Z,101860.39
2018-06-29T00:13:41.628Z,101860.78
2018-06-29T00:14:03.370Z,101864.19
2018-06-29T00:14:25.138Z,101865.25
2018-06-29T00:14:47.318Z,101860.39
2018-06-29T00:15:09.106Z,101865.25
2018-06-29T00:15:30.847Z,101866.56
2018-06-29T00:15:52.596Z,101864.86
2018-06-29T00:16:14.343Z,101866.70
2018-06-29T00:16:36.189Z,101864.47
2018-06-29T00:16:57.899Z,101868.95
2018-06-29T00:17:19.741Z,101867.87
2018-06-29T00:17:41.487Z,101865.89
2018-06-29T00:18:03.246Z,101877.94
2018-06-29T00:18:25.094Z,101872.75
2018-06-29T00:18:46.847Z,101865.66
2018-06-29T00:19:08.591Z,101865.66
2018-06-29T00:19:30.338Z,101872.99
2018-06-29T00:19:52.114Z,101867.36
2018-06-29T00:20:13.868Z,101866.44
2018-06-29T00:20:35.618Z,101865.90
2018-06-29T00:20:57.359Z,101863.03
2018-06-29T00:21:19.108Z,101863.13
2018-06-29T00:21:40.890Z,101863.52
2018-06-29T00:22:02.641Z,101859.73
2018-06-29T00:22:24.558Z,101863.13
2018-06-29T00:22:46.544Z,101860.89
2018-06-29T00:23:08.294Z,101861.43
2018-06-29T00:23:30.044Z,101865.22
2018-06-29T00:23:51.823Z,101861.81
2018-06-29T00:24:13.570Z,101860.27
2018-06-29T00:24:35.323Z,101854.00
2018-06-29T00:24:57.083Z,101853.08
2018-06-29T00:25:18.834Z,101850.69
2018-06-29T00:25:40.583Z,101854.23
2018-06-29T00:26:02.444Z,101852.39
2018-06-29T00:26:24.195Z,101850.02
2018-06-29T00:26:46.046Z,101848.55
2018-06-29T00:27:07.729Z,101846.70
2018-06-29T00:27:29.495Z,101851.03
2018-06-29T00:27:51.263Z,101850.74
2018-06-29T00:28:13.032Z,101847.25
2018-06-29T00:28:34.784Z,101844.63
2018-06-29T00:28:56.552Z,101848.33
2018-06-29T00:29:18.309Z,101842.30
2018-06-29T00:29:40.072Z,101849.25
2018-06-29T00:30:01.926Z,101846.63
2018-06-29T00:30:23.692Z,101838.37
2018-06-29T00:30:45.452Z,101836.31
2018-06-29T00:31:07.204Z,101840.45
2018-06-29T00:31:28.951Z,101843.47
2018-06-29T00:31:51.091Z,101842.55
2018-06-29T00:32:12.849Z,101844.88
2018-06-29T00:32:34.604Z,101839.92
2018-06-29T00:32:56.368Z,101842.02
2018-06-29T00:33:18.160Z,101843.66
2018-06-29T00:33:39.898Z,101842.34
2018-06-29T01:53:53.164Z,101819.40
2018-06-29T01:54:14.908Z,101818.09
2018-06-29T01:54:36.666Z,101819.78
2018-06-29T01:54:58.427Z,101820.27
2018-06-29T01:55:20.207Z,101818.03
2018-06-29T01:55:41.960Z,101820.50
2018-06-29T01:56:03.730Z,101817.34
2018-06-29T01:56:25.478Z,101818.47
2018-06-29T01:56:47.229Z,101815.16
2018-06-29T01:57:08.989Z,101819.87
2018-06-29T01:57:30.767Z,101818.17
2018-06-29T01:57:52.519Z,101822.64
2018-06-29T01:58:14.296Z,101820.41
2018-06-29T01:58:36.103Z,101821.71
2018-06-29T01:58:57.864Z,101817.78
2018-06-29T01:59:19.715Z,101818.70
2018-06-29T01:59:41.513Z,101820.55
2018-06-29T02:00:03.257Z,101818.31
2018-06-29T02:00:25.040Z,101815.94
2018-06-29T02:00:46.794Z,101824.72
2018-06-29T02:01:08.551Z,101822.78
2018-06-29T02:01:30.332Z,101818.85
2018-06-29T02:01:52.100Z,101825.11
2018-06-29T02:02:13.857Z,101817.63
2018-06-29T02:02:35.607Z,101820.25
2018-06-29T02:02:57.356Z,101820.41
2018-06-29T02:03:19.151Z,101818.17
2018-06-29T02:03:40.899Z,101816.86
2018-06-29T02:04:02.668Z,101817.88
2018-06-29T02:04:24.415Z,101818.50
2018-06-29T02:04:46.172Z,101818.73
2018-06-29T02:05:07.922Z,101820.43
2018-06-29T02:05:29.699Z,101817.42
2018-06-29T02:05:51.455Z,101820.05
2018-06-29T02:06:13.219Z,101814.41
2018-06-29T02:06:34.999Z,101815.39
2018-06-29T02:06:56.742Z,101822.09
2018-06-29T02:07:18.499Z,101814.03
2018-06-29T02:07:40.256Z,101814.03
2018-06-29T02:08:02.017Z,101818.73
2018-06-29T02:08:23.952Z,101816.50
2018-06-29T02:08:45.715Z,101816.31
2018-06-29T02:09:07.454Z,101813.16
2018-06-29T02:09:29.211Z,101814.08
2018-06-29T02:09:50.964Z,101818.55
2018-06-29T02:10:12.726Z,101810.25
2018-06-29T02:10:34.490Z,101813.25
2018-06-29T02:10:56.239Z,101810.63
2018-06-29T02:11:17.978Z,101816.27
2018-06-29T02:11:39.928Z,101811.08
2018-06-29T02:12:01.669Z,101814.47
2018-06-29T02:12:23.421Z,101810.15
2018-06-29T02:12:45.176Z,101806.07
2018-06-29T02:13:06.910Z,101804.91
2018-06-29T02:13:28.883Z,101802.91
2018-06-29T02:13:50.654Z,101808.24
2018-06-29T02:14:12.408Z,101812.17
2018-06-29T02:14:34.155Z,101810.71
2018-06-29T02:14:55.907Z,101806.16
2018-06-29T02:15:17.650Z,101806.55
2018-06-29T02:15:39.415Z,101801.69
2018-06-29T02:16:01.153Z,101803.39
2018-06-29T02:16:22.902Z,101800.77
2018-06-29T02:16:44.647Z,101804.46
2018-06-29T02:17:06.404Z,101807.08
2018-06-29T02:17:28.154Z,101804.61
2018-06-29T02:17:49.899Z,101802.77
2018-06-29T02:18:11.637Z,101805.92
2018-06-29T02:18:33.392Z,101805.38
2018-06-29T02:18:55.142Z,101801.45
2018-06-29T02:19:16.888Z,101798.30
2018-06-29T02:19:38.632Z,101797.52
2018-06-29T02:20:00.371Z,101804.31
2018-06-29T02:20:22.123Z,101796.84
2018-06-29T02:20:43.900Z,101796.69
2018-06-29T02:21:05.649Z,101796.00
2018-06-29T02:21:27.387Z,101801.24
2018-06-29T02:21:49.150Z,101801.93
2018-06-29T02:22:10.908Z,101798.92
2018-06-29T02:22:32.654Z,101788.74
2018-06-29T02:22:54.407Z,101798.84
2018-06-29T02:23:16.159Z,101803.16
2018-06-29T02:23:37.893Z,101799.22
2018-06-29T02:23:59.646Z,101794.91
2018-06-29T02:24:21.392Z,101792.91
2018-06-29T02:24:43.151Z,101801.30
2018-06-29T02:25:04.907Z,101790.77
2018-06-29T02:25:26.655Z,101787.58
2018-06-29T02:25:48.430Z,101792.07
2018-06-29T02:26:10.196Z,101789.98
2018-06-29T02:26:31.955Z,101783.25
2018-06-29T02:26:53.723Z,101785.59
2018-06-29T02:27:15.494Z,101779.57
2018-06-29T02:27:37.519Z,101783.80
2018-06-29T02:27:59.253Z,101785.80
2018-06-29T02:28:21.003Z,101778.17
2018-06-29T02:28:42.760Z,101779.33
2018-06-29T02:29:04.502Z,101778.56
2018-06-29T02:29:26.260Z,101774.39
2018-06-29T02:29:48.020Z,101772.55
2018-06-29T02:30:09.771Z,101776.95
2018-06-29T02:30:31.568Z,101773.17
2018-06-29T02:30:54.372Z,101775.65
2018-06-29T02:31:16.079Z,101768.17
2018-06-29T02:31:37.835Z,101769.69
2018-06-29T02:31:59.589Z,101771.77
2018-06-29T02:32:21.356Z,101771.18
2018-06-29T02:32:43.112Z,101768.38
2018-06-29T02:33:04.879Z,101767.84
2018-06-29T02:33:26.688Z,101756.97
2018-06-29T02:33:48.448Z,101758.08
2018-06-29T02:34:10.201Z,101757.70
2018-06-29T02:34:31.969Z,101756.14
2018-06-29T02:34:53.726Z,101746.97
2018-06-29T02:35:15.476Z,101756.53
2018-06-29T02:35:37.260Z,101751.83
2018-06-29T02:35:59.011Z,101748.43
2018-06-29T02:36:20.766Z,101749.98
2018-06-29T02:36:42.511Z,101754.83
2018-06-29T02:37:04.251Z,101754.69
2018-06-29T02:37:26.009Z,101758.38
2018-06-29T02:37:47.764Z,101759.69
2018-06-29T02:38:09.522Z,101758.91
2018-06-29T02:38:31.265Z,101759.69
2018-06-29T02:38:53.020Z,101755.37
2018-06-29T02:39:14.775Z,101756.44
2018-06-29T02:39:36.527Z,101745.96
2018-06-29T02:39:58.296Z,101748.34
2018-06-29T02:40:20.040Z,101743.09
2018-06-29T02:40:41.803Z,101746.40
2018-06-29T02:41:03.552Z,101744.50
2018-06-29T02:41:25.392Z,101747.51
2018-06-29T02:41:47.137Z,101747.80
2018-06-29T02:42:08.904Z,101746.64
2018-06-29T02:42:30.651Z,101747.51
2018-06-29T02:42:52.403Z,101746.64
2018-06-29T02:43:14.151Z,101753.82
2018-06-29T02:43:35.912Z,101747.12
2018-06-29T02:43:57.702Z,101753.28
2018-06-29T02:44:19.463Z,101747.12
2018-06-29T02:44:41.206Z,101742.42
2018-06-29T02:45:02.967Z,101743.58
2018-06-29T02:45:24.718Z,101753.82
2018-06-29T02:45:46.470Z,101750.28
2018-06-29T02:46:08.210Z,101745.96
2018-06-29T02:46:29.954Z,101743.05
2018-06-29T02:46:51.714Z,101750.22
2018-06-29T02:47:13.480Z,101738.48
2018-06-29T02:47:35.226Z,101746.05
2018-06-29T02:47:56.990Z,101747.06
2018-06-29T02:48:18.736Z,101742.84
2018-06-29T02:48:40.499Z,101743.22
2018-06-29T02:49:02.252Z,101740.60
2018-06-29T02:49:24.003Z,101741.34
2018-06-29T02:49:45.743Z,101743.96
2018-06-29T02:50:07.586Z,101751.14
2018-06-29T02:50:29.353Z,101744.73
2018-06-29T02:50:51.124Z,101747.74
2018-06-29T02:51:12.874Z,101740.22
2018-06-29T02:51:34.953Z,101742.75
2018-06-29T02:51:56.702Z,101749.44
2018-06-29T02:52:18.440Z,101744.59
2018-06-29T02:52:40.179Z,101745.81
2018-06-29T02:53:01.942Z,101746.59
2018-06-29T02:53:23.694Z,101737.27
2018-06-29T02:53:45.452Z,101741.05
2018-06-29T02:54:07.199Z,101745.90
2018-06-29T02:54:28.950Z,101740.12
2018-06-29T02:54:51.282Z,101740.75
2018-06-29T02:55:13.043Z,101736.82
2018-06-29T02:55:34.801Z,101740.22
2018-06-29T02:55:56.581Z,101740.75
2018-06-29T02:56:18.339Z,101737.12
2018-06-29T02:56:40.104Z,101737.66
2018-06-29T02:57:01.865Z,101735.57
2018-06-29T02:57:23.606Z,101731.64
2018-06-29T02:57:45.376Z,101736.64
2018-06-29T02:58:07.137Z,101733.25
2018-06-29T02:58:28.886Z,101734.02
2018-06-29T02:58:50.622Z,101731.87
2018-06-29T02:59:12.364Z,101738.05
2018-06-29T02:59:34.140Z,101739.89
2018-06-29T02:59:55.910Z,101734.80
2018-06-29T03:00:17.657Z,101742.66
2018-06-29T03:00:39.425Z,101734.27
2018-06-29T03:01:01.204Z,101730.95
2018-06-29T03:01:22.975Z,101736.20
2018-06-29T03:01:44.727Z,101741.20
2018-06-29T03:02:06.488Z,101736.20
2018-06-29T03:02:28.243Z,101740.12
2018-06-29T03:02:49.996Z,101736.29
2018-06-29T03:03:11.734Z,101737.98
2018-06-29T03:03:33.576Z,101735.18
2018-06-29T03:03:55.330Z,101733.12
2018-06-29T03:04:17.084Z,101728.36
2018-06-29T03:04:38.836Z,101729.58
2018-06-29T03:05:00.580Z,101730.80
2018-06-29T03:05:22.321Z,101725.75
2018-06-29T03:05:44.136Z,101729.67
2018-06-29T03:06:05.894Z,101733.37
2018-06-29T03:06:27.648Z,101731.81
2018-06-29T03:06:49.401Z,101733.04
2018-06-29T03:07:11.159Z,101728.19
2018-06-29T03:07:32.905Z,101725.56
2018-06-29T03:07:54.659Z,101724.80
2018-06-29T03:08:16.413Z,101727.02
2018-06-29T03:08:38.162Z,101729.02
2018-06-29T03:08:59.902Z,101727.71
2018-06-29T03:09:21.660Z,101724.11
2018-06-29T03:09:43.442Z,101721.64
2018-06-29T03:10:05.205Z,101717.86
2018-06-29T03:10:26.949Z,101724.95
2018-06-29T03:10:48.691Z,101726.64
2018-06-29T03:11:10.463Z,101723.78
2018-06-29T03:11:32.233Z,101725.72
2018-06-29T03:11:53.990Z,101727.02
2018-06-29T03:12:15.730Z,101725.33
2018-06-29T03:12:37.485Z,101726.10
2018-06-29T03:12:59.231Z,101726.73
2018-06-29T03:13:20.973Z,101718.72
2018-06-29T03:13:42.744Z,101722.41
2018-06-29T03:14:04.521Z,101718.09
2018-06-29T03:14:26.286Z,101724.80
2018-06-29T03:14:48.038Z,101722.17
2018-06-29T03:15:09.774Z,101716.84
2018-06-29T03:15:31.511Z,101717.56
2018-06-29T03:15:53.302Z,101714.94
2018-06-29T03:16:15.065Z,101711.79
2018-06-29T03:16:36.832Z,101712.91
2018-06-29T03:16:58.592Z,101714.61
2018-06-29T03:17:20.406Z,101712.77
2018-06-29T03:17:42.151Z,101713.16
2018-06-29T03:18:03.912Z,101714.41
2018-06-29T03:18:25.747Z,101717.80
2018-06-29T03:18:47.529Z,101717.27
2018-06-29T03:19:09.289Z,101710.18
2018-06-29T03:19:31.078Z,101714.26
2018-06-29T03:19:53.151Z,101709.70
2018-06-29T03:20:14.906Z,101707.91
2018-06-29T03:20:36.655Z,101702.05
2018-06-29T03:20:58.424Z,101706.75
2018-06-29T03:21:20.166Z,101705.23
2018-06-29T03:21:41.925Z,101705.92
2018-06-29T03:22:03.674Z,101708.59
2018-06-29T03:22:25.429Z,101697.48
2018-06-29T03:22:47.170Z,101702.88
2018-06-29T03:23:08.915Z,101705.05
2018-06-29T03:23:30.672Z,101706.66
2018-06-29T03:23:52.427Z,101707.58
2018-06-29T03:24:14.180Z,101701.02
2018-06-29T03:24:35.942Z,101705.48
2018-06-29T03:24:57.681Z,101704.56
2018-06-29T03:25:19.549Z,101710.10
2018-06-29T03:25:41.185Z,101710.43
2018-06-29T03:26:02.999Z,101704.09
2018-06-29T03:26:24.744Z,101715.73
2018-06-29T03:26:46.519Z,101705.88
2018-06-29T03:27:08.292Z,101711.06
2018-06-29T03:27:30.055Z,101711.36
2018-06-29T03:27:52.058Z,101708.98
2018-06-29T03:28:13.817Z,101712.63
2018-06-29T03:28:35.571Z,101705.92
2018-06-29T03:28:57.324Z,101711.70
2018-06-29T03:29:19.074Z,101715.48
2018-06-29T03:29:40.855Z,101714.94
2018-06-29T03:30:02.956Z,101715.72
2018-06-29T03:30:24.725Z,101716.70
2018-06-29T03:30:46.494Z,101717.70
2018-06-29T03:31:08.269Z,101719.73
2018-06-29T03:31:30.023Z,101725.75
2018-06-29T03:31:51.770Z,101717.17
2018-06-29T03:32:13.540Z,101726.72
2018-06-29T03:32:35.304Z,101724.19
2018-06-29T03:32:57.069Z,101713.33
2018-06-29T03:33:18.829Z,101717.17
2018-06-29T03:33:40.599Z,101719.20
2018-06-29T03:34:02.343Z,101715.80
2018-06-29T03:34:24.099Z,101715.56
2018-06-29T03:34:45.846Z,101711.70
2018-06-29T03:35:07.595Z,101712.77
2018-06-29T03:35:29.442Z,101713.48
2018-06-29T03:35:51.209Z,101716.64
2018-06-29T03:36:12.972Z,101718.55
2018-06-29T03:36:34.732Z,101719.70
2018-06-29T03:36:56.475Z,101722.32
2018-06-29T03:37:18.221Z,101723.24
2018-06-29T03:37:39.980Z,101714.70
2018-06-29T03:38:01.735Z,101721.10
2018-06-29T03:38:23.504Z,101715.18
2018-06-29T03:38:45.267Z,101712.95
2018-06-29T03:39:07.025Z,101717.41
2018-06-29T03:39:28.778Z,101715.56
2018-06-29T03:39:50.525Z,101721.19
2018-06-29T03:40:12.295Z,101715.95
2018-06-29T03:40:34.221Z,101718.96
2018-06-29T03:40:55.810Z,101719.64
2018-06-29T03:41:17.617Z,101726.64
2018-06-29T03:41:39.356Z,101720.33
2018-06-29T03:42:01.094Z,101719.17
2018-06-29T03:42:22.852Z,101720.33
2018-06-29T03:42:44.610Z,101724.64
2018-06-29T03:43:06.376Z,101718.09
2018-06-29T03:43:28.128Z,101718.87
2018-06-29T03:43:49.891Z,101711.40
2018-06-29T03:44:11.645Z,101718.09
2018-06-29T03:44:33.401Z,101719.41
2018-06-29T03:44:55.142Z,101715.18
2018-06-29T03:45:16.908Z,101718.87
2018-06-29T03:45:38.654Z,101716.02
2018-06-29T03:46:00.411Z,101715.86
2018-06-29T03:46:22.177Z,101711.16
2018-06-29T03:46:43.948Z,101713.54
2018-06-29T03:47:05.693Z,101709.85
2018-06-29T03:47:27.442Z,101719.02
2018-06-29T03:47:49.186Z,101717.17
2018-06-29T03:48:11.000Z,101713.63
2018-06-29T03:48:32.716Z,101713.19
2018-06-29T03:48:54.476Z,101714.31
2018-06-29T03:49:16.236Z,101716.78
2018-06-29T03:49:38.072Z,101712.17
2018-06-29T03:49:59.763Z,101709.02
2018-06-29T03:50:21.517Z,101707.86
2018-06-29T03:50:43.267Z,101712.47
2018-06-29T03:51:05.012Z,101709.26
2018-06-29T03:51:26.780Z,101710.18
2018-06-29T03:51:48.532Z,101707.86
2018-06-29T03:52:10.295Z,101715.95
2018-06-29T03:52:32.038Z,101715.47
2018-06-29T03:52:53.783Z,101718.42
2018-06-29T03:53:15.535Z,101727.20
2018-06-29T03:53:37.289Z,101714.31
2018-06-29T03:53:59.058Z,101714.31
2018-06-29T03:54:20.816Z,101713.39
2018-06-29T03:54:42.583Z,101710.86
2018-06-29T03:55:04.356Z,101715.80
2018-06-29T03:55:26.115Z,101708.23
2018-06-29T03:55:47.868Z,101715.73
2018-06-29T03:56:09.668Z,101717.05
2018-06-29T03:56:31.402Z,101721.13
2018-06-29T03:56:53.214Z,101717.05
2018-06-29T03:57:14.964Z,101713.70
2018-06-29T03:57:36.719Z,101711.63
2018-06-29T03:57:58.490Z,101709.54
2018-06-29T03:58:20.242Z,101713.12
2018-06-29T03:58:41.996Z,101710.31
2018-06-29T03:59:03.767Z,101711.23
2018-06-29T03:59:25.562Z,101711.63
2018-06-29T03:59:47.310Z,101713.47
2018-06-29T04:00:09.076Z,101709.54
2018-06-29T04:00:30.837Z,101709.34
2018-06-29T04:00:52.600Z,101707.80
2018-06-29T04:01:14.368Z,101707.41
2018-06-29T04:01:36.135Z,101709.48
2018-06-29T04:01:57.894Z,101711.33
2018-06-29T04:02:19.646Z,101711.87
2018-06-29T04:02:41.419Z,101719.97
2018-06-29T04:03:03.171Z,101720.88
2018-06-29T04:03:24.944Z,101719.03
2018-06-29T04:03:46.706Z,101719.42
2018-06-29T04:04:08.572Z,101720.04
2018-06-29T04:04:30.323Z,101714.66
2018-06-29T04:04:52.060Z,101722.50
2018-06-29T04:05:13.995Z,101719.50
2018-06-29T04:05:35.781Z,101723.58
2018-06-29T04:05:57.539Z,101725.04
2018-06-29T04:06:19.311Z,101717.19
2018-06-29T04:06:41.079Z,101723.88
2018-06-29T04:07:02.835Z,101720.72
2018-06-29T04:07:24.588Z,101725.96
2018-06-29T04:07:46.334Z,101730.04
2018-06-29T04:08:08.083Z,101726.88
2018-06-29T04:08:29.831Z,101726.34
2018-06-29T04:08:51.599Z,101724.27
2018-06-29T04:09:13.368Z,101723.88
2018-06-29T04:09:35.132Z,101720.34
2018-06-29T04:09:56.899Z,101711.71
2018-06-29T04:10:18.641Z,101717.33
2018-06-29T04:10:40.405Z,101720.79
2018-06-29T04:11:02.147Z,101720.79
2018-06-29T04:11:23.914Z,101725.34
2018-06-29T04:11:45.671Z,101724.03
2018-06-29T04:12:07.426Z,101720.88
2018-06-29T04:12:29.180Z,101721.11
2018-06-29T04:12:50.949Z,101717.57
2018-06-29T04:13:12.712Z,101715.34
2018-06-29T04:13:34.467Z,101711.41
2018-06-29T04:13:56.220Z,101709.18
2018-06-29T04:14:17.971Z,101709.72
2018-06-29T04:14:39.728Z,101705.64
2018-06-29T04:15:01.483Z,101718.88
2018-06-29T04:15:23.252Z,101715.72
2018-06-29T04:15:45.048Z,101710.88
2018-06-29T04:16:06.785Z,101711.11
2018-06-29T04:16:28.564Z,101704.33
2018-06-29T04:16:50.320Z,101706.02
2018-06-29T04:17:12.082Z,101709.03
2018-06-29T04:17:33.840Z,101710.34
2018-06-29T04:17:55.603Z,101706.27
2018-06-29T04:18:17.352Z,101703.41
2018-06-29T04:18:39.107Z,101706.41
2018-06-29T04:19:00.867Z,101708.88
2018-06-29T04:19:22.610Z,101712.95
2018-06-29T04:19:44.346Z,101712.57
2018-06-29T04:20:06.117Z,101710.73
2018-06-29T04:20:27.871Z,101706.80
2018-06-29T04:20:49.622Z,101710.48
2018-06-29T04:21:11.384Z,101705.10
2018-06-29T04:21:33.511Z,101706.56
2018-06-29T04:21:55.278Z,101704.63
2018-06-29T04:22:17.032Z,101701.39
2018-06-29T04:22:38.774Z,101712.02
2018-06-29T04:23:00.533Z,101708.47
2018-06-29T04:23:22.343Z,101705.70
2018-06-29T04:23:44.102Z,101705.70
2018-06-29T04:24:05.869Z,101708.17
2018-06-29T04:24:27.629Z,101710.64
2018-06-29T04:24:49.384Z,101709.72
2018-06-29T04:25:11.144Z,101712.03
2018-06-29T04:25:32.884Z,101703.26
2018-06-29T04:25:54.651Z,101705.16
2018-06-29T04:26:16.408Z,101710.77
2018-06-29T04:26:38.189Z,101708.69
2018-06-29T04:26:59.952Z,101707.95
2018-06-29T04:27:21.712Z,101712.80
2018-06-29T04:27:43.467Z,101713.73
2018-06-29T04:28:05.215Z,101707.34
2018-06-29T04:28:26.968Z,101707.48
2018-06-29T04:28:48.719Z,101709.95
2018-06-29T04:29:10.483Z,101706.71
2018-06-29T04:29:32.227Z,101706.09
2018-06-29T04:29:53.985Z,101702.70
2018-06-29T04:30:15.739Z,101696.00
2018-06-29T04:30:37.809Z,101699.84
2018-06-29T04:30:59.568Z,101699.25
2018-06-29T04:31:21.326Z,101700.02
2018-06-29T04:31:43.098Z,101700.02
2018-06-29T04:32:04.842Z,101691.59
2018-06-29T04:32:26.600Z,101699.02
2018-06-29T04:32:48.407Z,101699.40
2018-06-29T04:33:10.124Z,101705.02
2018-06-29T04:33:31.888Z,101703.00
2018-06-29T04:33:53.656Z,101698.53
2018-06-29T04:34:15.427Z,101700.47
2018-06-29T04:34:37.174Z,101699.39
2018-06-29T04:34:58.919Z,101702.25
2018-06-29T04:35:20.696Z,101702.72
2018-06-29T04:35:42.477Z,101703.84
2018-06-29T04:36:04.233Z,101700.92
2018-06-29T04:36:26.348Z,101693.61
2018-06-29T04:36:48.126Z,101696.91
2018-06-29T04:37:09.888Z,101691.33
2018-06-29T04:37:31.656Z,101694.48
2018-06-29T04:37:53.414Z,101696.91
2018-06-29T04:38:15.206Z,101698.22
2018-06-29T04:38:36.984Z,101701.56
2018-06-29T04:38:58.727Z,101699.53
2018-06-29T04:39:20.506Z,101700.48
2018-06-29T04:39:42.273Z,101698.02
2018-06-29T04:40:04.028Z,101699.09
2018-06-29T04:40:25.778Z,101695.79
2018-06-29T04:40:47.534Z,101692.78
2018-06-29T04:41:09.611Z,101691.47
2018-06-29T04:41:31.400Z,101693.62
2018-06-29T04:41:53.156Z,101697.46
2018-06-29T04:42:14.896Z,101693.48
2018-06-29T04:42:36.662Z,101692.70
2018-06-29T04:42:58.460Z,101695.71
2018-06-29T04:43:20.214Z,101698.72
2018-06-29T04:43:41.962Z,101693.38
2018-06-29T04:44:03.748Z,101695.17
2018-06-29T04:44:25.521Z,101695.02
2018-06-29T04:44:47.274Z,101690.85
2018-06-29T04:45:09.067Z,101693.77
2018-06-29T04:45:30.828Z,101691.84
2018-06-29T04:45:52.600Z,101683.36
2018-06-29T04:46:14.356Z,101685.98
2018-06-29T04:46:36.133Z,101680.31
2018-06-29T04:46:57.879Z,101680.55
2018-06-29T04:47:19.627Z,101677.73
2018-06-29T04:47:41.389Z,101677.04
2018-06-29T04:48:03.146Z,101676.73
2018-06-29T04:48:24.904Z,101680.60
2018-06-29T04:48:46.655Z,101680.26
2018-06-29T04:49:08.429Z,101676.61
2018-06-29T04:49:30.191Z,101680.38
2018-06-29T04:49:51.938Z,101676.09
2018-06-29T04:50:13.689Z,101680.78
2018-06-29T04:50:35.429Z,101684.36
2018-06-29T04:50:57.167Z,101683.29
2018-06-29T04:51:18.943Z,101687.08
2018-06-29T04:51:40.706Z,101685.63
2018-06-29T04:52:02.460Z,101681.20
2018-06-29T04:52:24.224Z,101673.48
2018-06-29T04:52:45.987Z,101671.39
2018-06-29T04:53:07.736Z,101672.42
2018-06-29T04:53:29.491Z,101672.11
2018-06-29T04:53:51.250Z,101672.67
2018-06-29T04:54:13.011Z,101678.02
2018-06-29T04:54:34.762Z,101677.25
2018-06-29T04:54:56.524Z,101675.19
2018-06-29T04:55:18.304Z,101677.81
2018-06-29T04:55:40.057Z,101682.88
2018-06-29T04:56:01.811Z,101684.34
2018-06-29T04:56:23.563Z,101685.82
2018-06-29T04:56:45.320Z,101680.65
2018-06-29T04:57:07.104Z,101673.95
2018-06-29T04:57:28.853Z,101676.25
2018-06-29T04:57:50.606Z,101673.59
2018-06-29T04:58:12.349Z,101673.70
2018-06-29T04:58:34.092Z,101675.47
2018-06-29T04:58:55.843Z,101676.34
2018-06-29T04:59:17.609Z,101674.36
2018-06-29T04:59:39.375Z,101676.45
2018-06-29T05:00:01.123Z,101680.63
2018-06-29T05:00:22.900Z,101684.37
2018-06-29T05:00:44.667Z,101686.32
2018-06-29T05:01:06.440Z,101690.50
2018-06-29T05:01:28.194Z,101685.64
2018-06-29T05:01:49.955Z,101682.73
2018-06-29T05:02:11.716Z,101686.66
2018-06-29T05:02:33.471Z,101682.20
2018-06-29T05:02:55.264Z,101682.59
2018-06-29T05:03:17.015Z,101681.28
2018-06-29T05:03:38.790Z,101678.13
2018-06-29T05:04:00.530Z,101682.06
2018-06-29T05:04:22.287Z,101686.38
2018-06-29T05:04:44.040Z,101686.38
2018-06-29T05:05:05.814Z,101684.89
2018-06-29T05:05:27.566Z,101686.77
2018-06-29T05:05:49.396Z,101687.51
2018-06-29T05:06:12.062Z,101687.16
2018-06-29T05:06:33.823Z,101687.51
2018-06-29T05:06:55.607Z,101684.53
2018-06-29T05:07:17.348Z,101679.50
2018-06-29T05:07:39.109Z,101684.53
2018-06-29T05:08:00.853Z,101689.77
2018-06-29T05:08:22.609Z,101684.89
2018-06-29T05:08:44.367Z,101684.14
2018-06-29T05:09:06.129Z,101690.31
2018-06-29T05:09:27.883Z,101686.38
2018-06-29T05:09:49.629Z,101691.23
2018-06-29T05:10:11.397Z,101696.09
2018-06-29T05:10:33.154Z,101694.23
2018-06-29T05:10:54.902Z,101693.31
2018-06-29T05:11:16.664Z,101695.16
2018-06-29T05:11:38.975Z,101699.48
2018-06-29T05:12:00.740Z,101697.64
2018-06-29T05:12:22.506Z,101695.94
2018-06-29T05:12:44.276Z,101695.16
2018-06-29T05:13:06.022Z,101695.37
2018-06-29T05:13:27.769Z,101704.34
2018-06-29T05:13:49.522Z,101700.41
2018-06-29T05:14:11.276Z,101697.78
2018-06-29T05:14:33.035Z,101701.33
2018-06-29T05:14:54.783Z,101696.47
2018-06-29T05:15:16.544Z,101703.56
2018-06-29T05:15:38.383Z,101699.62
2018-06-29T05:16:00.221Z,101697.93
2018-06-29T05:16:21.959Z,101692.69
2018-06-29T05:16:43.748Z,101696.23
2018-06-29T05:17:05.526Z,101693.61
2018-06-29T05:17:27.301Z,101695.45
2018-06-29T05:17:49.075Z,101693.75
2018-06-29T05:18:10.844Z,101690.75
2018-06-29T05:18:32.600Z,101695.98
2018-06-29T05:18:54.357Z,101694.67
2018-06-29T05:19:16.115Z,101692.83
2018-06-29T05:19:37.902Z,101695.06
2018-06-29T05:19:59.659Z,101693.36
2018-06-29T05:20:21.416Z,101685.36
2018-06-29T05:20:43.169Z,101683.27
2018-06-29T05:21:41.096Z,101684.97
2018-06-29T05:22:02.877Z,101682.59
2018-06-29T05:22:24.635Z,101679.05
2018-06-29T05:22:46.398Z,101683.52
2018-06-29T05:23:08.150Z,101682.59
2018-06-29T05:23:29.918Z,101681.81
2018-06-29T05:23:51.669Z,101688.37
2018-06-29T05:24:13.407Z,101689.44
2018-06-29T05:24:35.154Z,101693.75
2018-06-29T05:24:56.915Z,101691.13
2018-06-29T05:25:18.671Z,101694.28
2018-06-29T05:25:40.422Z,101695.98
2018-06-29T05:26:02.179Z,101697.44
2018-06-29T05:26:23.924Z,101692.05
2018-06-29T05:26:45.677Z,101695.20
2018-06-29T05:27:07.447Z,101700.98
2018-06-29T05:27:29.199Z,101693.12
2018-06-29T05:27:50.949Z,101700.20
2018-06-29T05:28:12.713Z,101695.20
2018-06-29T05:28:34.457Z,101694.82
2018-06-29T05:28:56.226Z,101697.44